AirNav   Everest Fuels
 
 450 users online  

NIN Ninilchik Airport
Ninilchik, Alaska, USA

GOING TO NINILCHIK?


FAA INFORMATION EFFECTIVE 23 MAY 2019

Location

FAA Identifier: NIN
Lat/Long: 60-01-12.8430N / 151-35-21.9070W
60-01.214050N / 151-35.365117W
60.0202342 / -151.5894186
(estimated)
Elevation: 276 ft. / 84.1 m (surveyed)
Variation: 24E (1985)
From city: 3 miles SE of NINILCHIK, AK
Time zone: UTC -8 (UTC -9 during Standard Time)
Zip code: 99639

Airport Operations

Airport use: Open to the public
Activation date: 10/1962
Control tower: no
ARTCC: ANCHORAGE CENTER
FSS: HOMER FLIGHT SERVICE STATION [907-235-8588]
Alternate FSS: ENA KENAI FLIGHT SERVICE STATION [1-866-864-1737]
NOTAMs facility: HOM (NOTAM-D service available)
Attendance: UNATNDD
Wind indicator: yes
Segmented circle: yes

Airport Communications

CTAF: 122.9

Nearby radio navigation aids

VOR radial/distance  VOR name  Freq  Var
HOMr333/19.1HOMER VOR/DME114.6015E
ENAr179/37.5KENAI VOR/DME117.6019E

 
NDB name  Hdg/Dist  Freq  Var  ID
KACHEMAK336/22.927717EACE .- -.-. .
SOLDOTNA199/34.534619EOLT --- .-.. -
WILDWOOD183/36.537915EIWW .. .-- .--

Airport Services

Parking: tiedowns
Airframe service: NONE
Powerplant service: NONE
Bottled oxygen: NONE
Bulk oxygen: NONE

Runway Information

Runway 10/28

Dimensions: 2400 x 60 ft. / 732 x 18 m
Surface: gravel, in good condition
Runway edge markings: RWY EDGES NOT MARKED.
RUNWAY 10  RUNWAY 28
Traffic pattern: leftleft
Obstructions: 15 ft. road, 80 ft. left and right of centerline50 ft. trees, 125 ft. right of centerline

Airport Ownership and Management from official FAA records

Ownership: Publicly-owned
Owner: ALASKA DOT&PF CENTRAL REGION
PO BOX 196900
ANCHORAGE, AK 99519-6900
Phone (907) 269-0760
Manager: SEAN MONTGOMERY/CARL HIGH
STATE OF AK, PO BOX 1327
SOLDOTNA, AK 99669
Phone 907-262-2199

Airport Operational Statistics

Aircraft based on the field: 9
Single engine airplanes: 8
Ultralights: 1
    
Aircraft operations: avg 22/week *
87% transient general aviation
13% air taxi
* for 12-month period ending 31 December 2017

Additional Remarks

RY COND NOT MONITORED. RECOMMEND VISUAL INSPECTION PRIOR TO USE.
SAFETY AREAS AT BOTH RY ENDS SOFT.
STATE MAINTAINED ON IRREGULAR BASIS.
ULTRALIGHT ACTIVITY INVOF ARPT.

Instrument Procedures

There are no published instrument procedures at NIN.

Some nearby airports with instrument procedures:

PAHO - Homer Airport (23 nm S)
PASX - Soldotna Airport (32 nm NE)
PAEN - Kenai Municipal Airport (35 nm N)
PAWD - Seward Airport (65 nm E)
PANC - Ted Stevens Anchorage International Airport (84 nm NE)
 
Loc | Ops | Rwys | IFR | FBO | Links
Com | Nav | Svcs | Stats | Notes

Crowley
 
Area around NIN (Ninilchik Airport)
 
Road maps at: MapQuest Bing Google
 
Aerial photo
WARNING: Photo may not be current or correct
Aerial photo of NIN (Ninilchik Airport)
Do you have a better or more recent aerial photo of Ninilchik Airport that you would like to share? If so, please send us your photo.

 
Sectional chart

 
Airport distance calculator
Flying to Ninilchik Airport? Find the distance to fly.

From to NIN

Sunrise and sunset
Times for 26-May-2019
 Local
(UTC-8)
 Zulu
(UTC)
Morning civil twilight03:5011:50
Sunrise05:0613:06
Sunset23:0107:01
Evening civil twilight00:1708:17

Current date and time
Zulu (UTC)  26-May-2019 10:06:47
Local (UTC-8)  26-May-2019 02:06:47
 
METAR
PAHO 
23nm S 
260953Z AUTO 01003KT 10SM FEW046 OVC060 09/07 A2984 RMK AO2 SLP105 T00890067 TSNO
PASX 
32nm NE 
260956Z AUTO 33003KT 10SM FEW070 08/07 A2990 RMK AO2 RAB01E26 SLP135 P0001 T00830072
PAEN 
34nm N 
260953Z AUTO 35006KT 10SM OVC070 08/07 A2988 RMK AO2 RAB12E28 SLP122 P0000 T00830072 TSNO
PASO 
34nm S 
260953Z AUTO 00000KT 10SM FEW045 OVC060 09/05 A2984 RMK AO2 SLP104 T00890050 TSNO
TAF
PAHO 
23nm S 
260520Z 2606/2706 VRB06KT P6SM -RA SCT045 OVC060 FM262000 10007KT P6SM -RA OVC030 FM270100 12010KT P6SM -SHRA BKN045
NOTAMs
Click for the latest NOTAMs
NOTAMs are issued by the DoD/FAA and will open in a separate window not controlled by AirNav.

 

 
 

Would you like to see your business listed on this page?

 If your business provides an interesting product or service to pilots, flight crews, aircraft, or users of the Ninilchik Airport, you should consider listing it here.  To start the listing process, click on the button below
 
Add a business
 

Other Pages about Ninilchik Airport

Update a link
 
Copyright © AirNav, LLC. All rights reserved. Privacy Policy  Contact